createdAt,value
2022-11-30T00:00:30.070Z,18.80
2022-11-30T00:03:17.774Z,17.02
2022-11-30T00:06:07.601Z,18.10
2022-11-30T00:08:57.062Z,15.78
2022-11-30T00:11:44.346Z,17.17
2022-11-30T00:14:31.841Z,15.70
2022-11-30T00:17:19.267Z,14.50
2022-11-30T00:20:07.166Z,14.38
2022-11-30T00:22:56.295Z,15.45
2022-11-30T00:25:43.749Z,14.18
2022-11-30T00:28:32.921Z,14.53
2022-11-30T00:31:21.202Z,15.20
2022-11-30T00:34:08.498Z,14.90
2022-11-30T00:36:55.828Z,14.68
2022-11-30T00:39:42.945Z,14.47
2022-11-30T00:42:30.434Z,14.13
2022-11-30T00:45:17.725Z,14.33
2022-11-30T00:48:05.180Z,12.80
2022-11-30T00:50:52.531Z,14.43
2022-11-30T00:53:41.374Z,13.55
2022-11-30T00:56:28.641Z,14.30
2022-11-30T00:59:16.186Z,13.40
2022-11-30T01:02:03.670Z,14.75
2022-11-30T01:04:51.116Z,14.95
2022-11-30T01:07:38.728Z,14.90
2022-11-30T01:10:25.612Z,15.80
2022-11-30T01:13:15.981Z,15.55
2022-11-30T01:16:04.921Z,15.70
2022-11-30T01:18:52.857Z,15.18
2022-11-30T01:21:39.986Z,16.02
2022-11-30T01:24:27.325Z,13.70
2022-11-30T01:27:14.408Z,14.20
2022-11-30T01:30:02.150Z,13.55
2022-11-30T01:32:49.765Z,14.63
2022-11-30T01:35:37.129Z,15.00
2022-11-30T01:38:24.622Z,15.78
2022-11-30T01:41:15.113Z,14.70
2022-11-30T01:44:20.153Z,15.20
2022-11-30T01:47:08.598Z,14.58
2022-11-30T01:50:17.560Z,13.38
2022-11-30T01:53:05.829Z,13.18
2022-11-30T01:55:53.816Z,12.55
2022-11-30T01:58:41.190Z,12.47
2022-11-30T02:01:28.592Z,12.37
2022-11-30T02:04:27.589Z,12.00
2022-11-30T02:07:14.963Z,12.18
2022-11-30T02:10:02.056Z,11.95
2022-11-30T02:13:12.125Z,13.22
2022-11-30T02:16:08.624Z,12.95
2022-11-30T02:19:01.587Z,12.60
2022-11-30T02:22:10.277Z,12.05
2022-11-30T02:25:06.218Z,11.93
2022-11-30T02:28:22.137Z,12.33
2022-11-30T02:31:12.476Z,12.15
2022-11-30T02:34:02.505Z,12.43
2022-11-30T02:36:50.275Z,10.15
2022-11-30T02:39:37.509Z,10.68
2022-11-30T02:42:25.158Z,10.18
2022-11-30T02:45:12.993Z,10.08
2022-11-30T02:48:06.554Z,10.50
2022-11-30T02:50:57.309Z,9.28
2022-11-30T02:53:45.080Z,9.68
2022-11-30T02:56:33.208Z,9.95
2022-11-30T02:59:22.246Z,10.55
2022-11-30T03:02:09.588Z,9.75
2022-11-30T03:04:57.070Z,10.05
2022-11-30T03:07:44.534Z,8.95
2022-11-30T03:10:31.825Z,9.55
2022-11-30T03:13:19.038Z,10.20
2022-11-30T03:16:11.413Z,10.20
2022-11-30T03:18:59.234Z,10.70
2022-11-30T03:21:46.611Z,10.68
2022-11-30T03:24:33.896Z,11.33
2022-11-30T03:27:21.298Z,11.38
2022-11-30T03:30:09.238Z,11.33
2022-11-30T03:32:56.793Z,12.23
2022-11-30T03:35:44.489Z,12.45
2022-11-30T03:38:32.320Z,12.10
2022-11-30T03:41:19.952Z,11.88
2022-11-30T03:44:07.658Z,12.43
2022-11-30T03:46:54.880Z,12.47
2022-11-30T03:49:41.955Z,12.55
2022-11-30T03:52:29.656Z,13.50
2022-11-30T03:55:17.119Z,12.98
2022-11-30T03:58:04.359Z,13.65
2022-11-30T04:00:53.670Z,14.10
2022-11-30T04:03:41.753Z,12.82
2022-11-30T04:06:28.821Z,12.15
2022-11-30T04:09:16.055Z,14.00
2022-11-30T04:12:03.136Z,14.10
2022-11-30T04:14:50.346Z,13.22
2022-11-30T04:17:37.889Z,13.32
2022-11-30T04:20:25.674Z,13.68
2022-11-30T04:23:13.584Z,14.28
2022-11-30T04:26:00.870Z,12.37
2022-11-30T04:28:48.216Z,12.63
2022-11-30T04:31:35.740Z,13.22
2022-11-30T04:34:23.128Z,11.88
2022-11-30T04:37:10.020Z,12.05
2022-11-30T04:39:57.341Z,12.10
2022-11-30T04:42:44.714Z,12.30
2022-11-30T04:45:35.302Z,11.38
2022-11-30T04:48:21.916Z,12.88
2022-11-30T04:51:10.603Z,12.50
2022-11-30T04:53:58.097Z,13.58
2022-11-30T04:56:45.290Z,13.20
2022-11-30T04:59:32.560Z,11.90
2022-11-30T05:02:20.081Z,13.20
2022-11-30T05:05:08.059Z,13.88
2022-11-30T05:08:00.047Z,13.10
2022-11-30T05:10:52.960Z,12.45
2022-11-30T05:13:37.712Z,13.38
2022-11-30T05:16:25.344Z,13.03
2022-11-30T05:19:14.521Z,12.60
2022-11-30T05:22:02.134Z,12.68
2022-11-30T05:24:49.769Z,13.32
2022-11-30T05:27:37.618Z,13.58
2022-11-30T05:30:24.938Z,12.65
2022-11-30T05:33:12.226Z,11.93
2022-11-30T05:35:59.438Z,12.47
2022-11-30T05:38:46.968Z,11.93
2022-11-30T05:41:34.513Z,11.70
2022-11-30T05:44:21.631Z,12.00
2022-11-30T05:47:08.910Z,14.07
2022-11-30T05:49:56.168Z,12.25
2022-11-30T05:52:43.419Z,11.93
2022-11-30T05:55:32.461Z,12.35
2022-11-30T05:58:19.742Z,11.63
2022-11-30T06:01:07.664Z,11.95
2022-11-30T06:03:55.600Z,12.70
2022-11-30T06:06:43.145Z,11.50
2022-11-30T06:09:30.711Z,11.33
2022-11-30T06:12:18.339Z,11.57
2022-11-30T06:15:05.755Z,12.47
2022-11-30T06:17:54.826Z,12.82
2022-11-30T06:20:42.364Z,11.97
2022-11-30T06:23:30.730Z,13.35
2022-11-30T06:26:18.209Z,10.43
2022-11-30T06:29:05.443Z,12.23
2022-11-30T06:31:52.729Z,11.90
2022-11-30T06:34:40.386Z,10.90
2022-11-30T06:37:27.276Z,11.15
2022-11-30T06:40:15.373Z,10.45
2022-11-30T06:43:02.655Z,10.53
2022-11-30T06:45:49.831Z,10.93
2022-11-30T06:48:37.422Z,12.00
2022-11-30T06:51:24.753Z,11.88
2022-11-30T06:54:11.719Z,12.15
2022-11-30T06:56:59.167Z,12.03
2022-11-30T06:59:47.416Z,11.85
2022-11-30T07:02:34.867Z,12.47
2022-11-30T07:05:22.052Z,12.05
2022-11-30T07:08:09.237Z,12.88
2022-11-30T07:10:56.771Z,11.53
2022-11-30T07:13:44.052Z,12.10
2022-11-30T07:16:31.692Z,11.85
2022-11-30T07:19:19.312Z,11.20
2022-11-30T07:22:06.709Z,11.50
2022-11-30T07:25:12.142Z,10.90
2022-11-30T07:27:59.670Z,10.68
2022-11-30T07:30:46.910Z,11.08
2022-11-30T07:33:34.503Z,12.00
2022-11-30T07:36:23.444Z,12.13
2022-11-30T07:39:12.068Z,13.60
2022-11-30T07:41:59.452Z,12.05
2022-11-30T07:44:46.833Z,12.03
2022-11-30T07:47:34.016Z,13.43
2022-11-30T07:50:21.543Z,11.88
2022-11-30T07:53:09.063Z,10.75
2022-11-30T07:55:57.798Z,12.05
2022-11-30T07:58:45.496Z,10.90
2022-11-30T08:01:34.654Z,10.90
2022-11-30T08:04:22.263Z,11.65
2022-11-30T08:07:09.487Z,11.45
2022-11-30T08:09:56.897Z,12.90
2022-11-30T08:12:44.410Z,14.35
2022-11-30T08:15:33.339Z,13.53
2022-11-30T08:18:20.791Z,14.38
2022-11-30T08:21:09.898Z,13.93
2022-11-30T08:23:58.252Z,14.00
2022-11-30T08:26:45.886Z,15.03
2022-11-30T08:29:33.181Z,13.70
2022-11-30T08:32:20.707Z,14.55
2022-11-30T08:35:08.271Z,14.93
2022-11-30T08:37:55.677Z,14.28
2022-11-30T08:40:42.930Z,16.12
2022-11-30T08:43:30.265Z,15.48
2022-11-30T08:46:51.038Z,16.80
2022-11-30T08:49:25.162Z,15.35
2022-11-30T08:54:48.075Z,16.60
2022-11-30T08:57:35.417Z,16.57
2022-11-30T09:00:23.023Z,15.90
2022-11-30T09:03:10.035Z,16.85
2022-11-30T09:06:00.515Z,17.10
2022-11-30T09:08:49.836Z,18.32
2022-11-30T09:11:37.318Z,17.73
2022-11-30T09:14:24.953Z,18.42
2022-11-30T09:17:12.359Z,17.67
2022-11-30T09:19:59.764Z,17.67
2022-11-30T09:22:47.030Z,18.52
2022-11-30T09:25:34.556Z,17.85
2022-11-30T09:28:21.784Z,18.90
2022-11-30T09:31:17.527Z,17.95
2022-11-30T09:34:04.842Z,17.42
2022-11-30T09:36:52.305Z,16.62
2022-11-30T09:39:39.398Z,16.07
2022-11-30T09:42:48.179Z,16.17
2022-11-30T09:45:37.871Z,17.15
2022-11-30T09:48:33.795Z,16.25
2022-11-30T09:51:30.202Z,16.30
2022-11-30T09:54:23.827Z,17.45
2022-11-30T09:57:31.278Z,18.40
2022-11-30T10:00:21.636Z,18.60
2022-11-30T10:03:08.889Z,18.27
2022-11-30T10:06:02.596Z,19.27
2022-11-30T10:09:04.718Z,18.85
2022-11-30T10:12:06.722Z,18.30
2022-11-30T10:15:06.069Z,18.40
2022-11-30T10:18:17.359Z,18.37
2022-11-30T10:21:24.290Z,16.90
2022-11-30T10:24:23.808Z,16.50
2022-11-30T10:27:39.587Z,16.97
2022-11-30T10:30:32.758Z,17.42
2022-11-30T10:33:22.882Z,17.12
2022-11-30T10:36:13.372Z,18.37
2022-11-30T10:39:03.725Z,17.15
2022-11-30T10:42:03.373Z,17.15
2022-11-30T10:45:05.800Z,16.77
2022-11-30T10:48:17.455Z,15.60
2022-11-30T10:51:05.406Z,15.48
2022-11-30T10:53:52.543Z,16.27
2022-11-30T10:56:40.037Z,16.60
2022-11-30T10:59:46.159Z,15.75
2022-11-30T11:02:43.065Z,15.60
2022-11-30T11:05:32.589Z,16.73
2022-11-30T11:08:23.003Z,15.95
2022-11-30T11:11:34.950Z,15.78
2022-11-30T11:14:24.706Z,14.40
2022-11-30T11:17:26.063Z,13.45
2022-11-30T11:20:31.728Z,14.50
2022-11-30T11:23:24.922Z,12.50
2022-11-30T11:26:24.273Z,13.30
2022-11-30T11:29:14.391Z,11.90
2022-11-30T11:32:13.346Z,12.10
2022-11-30T11:35:01.011Z,11.25
2022-11-30T11:37:51.359Z,9.73
2022-11-30T11:40:38.847Z,9.20
2022-11-30T11:43:29.020Z,8.50
2022-11-30T11:46:16.344Z,7.22
2022-11-30T11:49:09.481Z,7.25
2022-11-30T11:52:19.008Z,6.70
2022-11-30T11:55:20.669Z,6.05
2022-11-30T11:58:11.307Z,7.03
2022-11-30T12:01:31.594Z,7.28
2022-11-30T12:04:05.261Z,9.15
2022-11-30T12:06:55.515Z,8.35
2022-11-30T12:09:46.255Z,9.15
2022-11-30T12:12:33.681Z,8.63
2022-11-30T12:15:27.054Z,10.70
2022-11-30T12:18:24.063Z,13.08
2022-11-30T12:21:17.414Z,12.43
2022-11-30T12:24:19.830Z,12.33
2022-11-30T12:27:45.213Z,12.93
2022-11-30T12:30:47.716Z,13.55
2022-11-30T12:34:03.635Z,13.53
2022-11-30T12:37:16.761Z,13.48
2022-11-30T12:40:19.085Z,12.63
2022-11-30T12:43:26.209Z,13.10
2022-11-30T12:46:24.962Z,13.13
2022-11-30T12:49:25.597Z,12.05
2022-11-30T12:52:49.461Z,11.65
2022-11-30T12:55:42.473Z,11.03
2022-11-30T12:58:44.663Z,12.93
2022-11-30T13:01:52.999Z,11.88
2022-11-30T13:04:43.615Z,11.05
2022-11-30T13:07:37.223Z,11.65
2022-11-30T13:10:27.538Z,11.75
2022-11-30T13:13:25.443Z,11.65
2022-11-30T13:16:12.854Z,11.65
2022-11-30T13:19:18.192Z,12.07
2022-11-30T13:22:08.419Z,11.68
2022-11-30T13:25:10.121Z,12.35
2022-11-30T13:28:12.214Z,11.93
2022-11-30T13:31:08.257Z,11.88
2022-11-30T13:33:58.690Z,13.77
2022-11-30T13:36:46.491Z,14.05
2022-11-30T13:39:37.084Z,15.40
2022-11-30T13:42:39.465Z,14.38
2022-11-30T13:45:36.270Z,14.20
2022-11-30T13:48:35.746Z,13.90
2022-11-30T13:51:37.440Z,14.30
2022-11-30T13:54:51.362Z,14.40
2022-11-30T13:57:41.926Z,15.15
2022-11-30T14:00:35.148Z,15.93
2022-11-30T14:03:25.297Z,15.43
2022-11-30T14:06:41.587Z,16.90
2022-11-30T14:09:45.156Z,16.65
2022-11-30T14:12:37.543Z,17.15
2022-11-30T14:15:29.725Z,18.92
2022-11-30T14:18:23.000Z,19.00
2022-11-30T14:21:19.682Z,20.40
2022-11-30T14:24:10.000Z,19.65
2022-11-30T14:26:57.436Z,19.48
2022-11-30T14:29:45.979Z,19.42
2022-11-30T14:32:42.656Z,21.12
2022-11-30T14:35:31.884Z,19.32
2022-11-30T14:38:33.155Z,19.27
2022-11-30T14:41:29.505Z,19.17
2022-11-30T14:44:17.089Z,20.43
2022-11-30T14:47:31.298Z,19.17
2022-11-30T14:50:26.864Z,19.85
2022-11-30T14:53:17.167Z,19.77
2022-11-30T14:56:07.552Z,19.52
2022-11-30T14:59:00.557Z,18.50
2022-11-30T15:01:47.728Z,19.10
2022-11-30T15:04:37.068Z,18.77
2022-11-30T15:07:25.900Z,18.07
2022-11-30T15:10:18.935Z,18.48
2022-11-30T15:13:06.878Z,17.40
2022-11-30T15:15:56.531Z,18.42
2022-11-30T15:18:43.622Z,19.05
2022-11-30T15:21:32.959Z,18.12
2022-11-30T15:24:21.126Z,17.92
2022-11-30T15:27:14.495Z,18.50
2022-11-30T15:30:02.254Z,18.62
2022-11-30T15:32:53.731Z,20.70
2022-11-30T15:36:13.871Z,20.45
2022-11-30T15:38:33.248Z,21.87
2022-11-30T15:41:24.270Z,22.17
2022-11-30T15:44:34.749Z,21.65
2022-11-30T15:47:34.334Z,20.25
2022-11-30T15:50:33.841Z,20.23
2022-11-30T15:53:30.200Z,19.32
2022-11-30T15:56:25.936Z,20.70
2022-11-30T15:59:16.410Z,17.98
2022-11-30T16:02:11.920Z,18.17
2022-11-30T16:05:14.924Z,18.32
2022-11-30T16:08:03.742Z,18.45
2022-11-30T16:10:52.615Z,19.95
2022-11-30T16:13:42.156Z,18.17
2022-11-30T16:16:32.747Z,17.65
2022-11-30T16:19:20.771Z,18.32
2022-11-30T16:22:11.368Z,19.67
2022-11-30T16:24:58.793Z,18.40
2022-11-30T16:27:47.661Z,17.32
2022-11-30T16:30:34.769Z,18.27
2022-11-30T16:33:25.663Z,18.30
2022-11-30T16:36:18.979Z,19.45
2022-11-30T16:39:06.453Z,18.30
2022-11-30T16:41:57.187Z,19.30
2022-11-30T16:44:45.772Z,17.55
2022-11-30T16:47:32.908Z,17.75
2022-11-30T16:50:21.096Z,17.17
2022-11-30T16:53:11.728Z,15.58
2022-11-30T16:55:58.599Z,15.10
2022-11-30T16:58:46.110Z,15.93
2022-11-30T17:01:36.921Z,17.42
2022-11-30T17:04:30.489Z,17.00
2022-11-30T17:07:17.835Z,17.12
2022-11-30T17:10:06.955Z,15.35
2022-11-30T17:12:55.887Z,16.07
2022-11-30T17:15:43.022Z,15.53
2022-11-30T17:18:30.572Z,15.75
2022-11-30T17:21:20.906Z,15.90
2022-11-30T17:24:08.523Z,14.18
2022-11-30T17:26:55.752Z,14.40
2022-11-30T17:29:43.570Z,13.93
2022-11-30T17:32:31.329Z,12.93
2022-11-30T17:35:19.979Z,13.22
2022-11-30T17:38:07.574Z,13.35
2022-11-30T17:40:55.774Z,12.15
2022-11-30T17:43:49.142Z,13.95
2022-11-30T17:46:38.790Z,15.08
2022-11-30T17:49:26.337Z,13.90
2022-11-30T17:52:13.812Z,14.23
2022-11-30T17:55:01.211Z,14.05
2022-11-30T17:57:48.794Z,13.72
2022-11-30T18:00:35.973Z,13.75
2022-11-30T18:03:26.475Z,15.30
2022-11-30T18:06:14.521Z,14.60
2022-11-30T18:09:01.931Z,13.20
2022-11-30T18:11:49.305Z,13.25
2022-11-30T18:14:36.554Z,12.93
2022-11-30T18:17:26.718Z,15.18
2022-11-30T18:20:14.410Z,15.68
2022-11-30T18:23:01.951Z,15.28
2022-11-30T18:25:49.566Z,13.58
2022-11-30T18:28:36.864Z,14.05
2022-11-30T18:31:28.858Z,14.85
2022-11-30T18:34:16.373Z,16.45
2022-11-30T18:37:05.368Z,17.10
2022-11-30T18:39:52.839Z,18.10
2022-11-30T18:42:40.225Z,16.82
2022-11-30T18:45:27.190Z,15.45
2022-11-30T18:48:15.698Z,14.75
2022-11-30T18:51:14.823Z,15.18
2022-11-30T18:54:04.736Z,14.73
2022-11-30T18:56:52.487Z,15.35
2022-11-30T18:59:39.811Z,16.80
2022-11-30T19:02:27.490Z,16.10
2022-11-30T19:05:23.030Z,15.32
2022-11-30T19:08:11.236Z,15.23
2022-11-30T19:11:05.438Z,14.38
2022-11-30T19:14:00.211Z,15.63
2022-11-30T19:16:47.727Z,14.13
2022-11-30T19:19:34.898Z,15.35
2022-11-30T19:22:24.917Z,14.70
2022-11-30T19:25:18.927Z,15.08
2022-11-30T19:28:03.988Z,14.53
2022-11-30T19:30:51.012Z,14.93
2022-11-30T19:33:40.082Z,15.48
2022-11-30T19:36:29.773Z,15.68
2022-11-30T19:39:16.972Z,19.55
2022-11-30T19:42:04.476Z,15.05
2022-11-30T19:44:52.360Z,14.85
2022-11-30T19:47:39.642Z,14.45
2022-11-30T19:50:27.054Z,14.35
2022-11-30T19:53:14.494Z,13.50
2022-11-30T19:56:07.516Z,13.40
2022-11-30T19:58:58.767Z,14.58
2022-11-30T20:01:45.148Z,14.55
2022-11-30T20:04:32.651Z,14.83
2022-11-30T20:07:19.889Z,14.20
2022-11-30T20:10:07.691Z,13.15
2022-11-30T20:12:57.115Z,14.07
2022-11-30T20:15:44.325Z,15.15
2022-11-30T20:18:31.449Z,14.78
2022-11-30T20:21:24.815Z,14.80
2022-11-30T20:24:12.899Z,14.13
2022-11-30T20:27:00.138Z,13.38
2022-11-30T20:29:49.253Z,13.30
2022-11-30T20:32:38.236Z,13.93
2022-11-30T20:35:25.647Z,13.22
2022-11-30T20:38:12.967Z,13.62
2022-11-30T20:41:00.589Z,13.88
2022-11-30T20:43:48.219Z,12.73
2022-11-30T20:46:36.864Z,13.98
2022-11-30T20:49:27.073Z,13.20
2022-11-30T20:52:14.655Z,12.75
2022-11-30T20:55:02.074Z,13.03
2022-11-30T20:57:49.462Z,13.80
2022-11-30T21:00:36.666Z,13.90
2022-11-30T21:03:24.109Z,15.20
2022-11-30T21:06:12.732Z,12.35
2022-11-30T21:09:00.688Z,13.22
2022-11-30T21:11:49.309Z,11.90
2022-11-30T21:14:36.986Z,13.95
2022-11-30T21:17:25.828Z,13.32
2022-11-30T21:20:12.986Z,12.30
2022-11-30T21:23:00.265Z,10.90
2022-11-30T21:25:50.369Z,10.28
2022-11-30T21:28:38.420Z,10.48
2022-11-30T21:31:25.783Z,10.13
2022-11-30T21:34:13.448Z,11.20
2022-11-30T21:37:00.947Z,11.40
2022-11-30T21:39:48.305Z,10.32
2022-11-30T21:42:35.542Z,11.40
2022-11-30T21:45:24.837Z,11.60
2022-11-30T21:48:12.046Z,10.63
2022-11-30T21:51:00.605Z,10.68
2022-11-30T21:53:50.849Z,11.05
2022-11-30T21:56:39.547Z,10.70
2022-11-30T21:59:26.982Z,10.15
2022-11-30T22:02:14.878Z,11.68
2022-11-30T22:05:02.419Z,11.33
2022-11-30T22:07:49.750Z,11.18
2022-11-30T22:10:37.191Z,11.63
2022-11-30T22:13:24.538Z,11.20
2022-11-30T22:16:17.268Z,11.43
2022-11-30T22:19:05.278Z,12.45
2022-11-30T22:21:54.198Z,11.95
2022-11-30T22:24:41.325Z,12.25
2022-11-30T22:27:28.908Z,12.18
2022-11-30T22:30:16.521Z,11.57
2022-11-30T22:33:04.115Z,11.57
2022-11-30T22:35:53.696Z,11.10
2022-11-30T22:38:41.264Z,12.25
2022-11-30T22:41:29.304Z,14.60
2022-11-30T22:44:18.579Z,14.58
2022-11-30T22:47:08.304Z,12.68
2022-11-30T22:49:55.717Z,11.40
2022-11-30T22:53:02.354Z,11.73
2022-11-30T22:55:32.869Z,12.23
2022-11-30T22:58:20.318Z,10.48
2022-11-30T23:01:19.847Z,12.03
2022-11-30T23:04:11.965Z,12.70
2022-11-30T23:06:59.983Z,11.40
2022-11-30T23:09:48.557Z,13.05
2022-11-30T23:12:58.312Z,15.48
2022-11-30T23:15:25.038Z,17.52
2022-11-30T23:18:12.304Z,17.37
2022-11-30T23:21:14.902Z,19.25
2022-11-30T23:24:13.976Z,18.27
2022-11-30T23:27:01.094Z,18.07
2022-11-30T23:29:48.860Z,18.35
2022-11-30T23:32:36.631Z,19.12
2022-11-30T23:35:25.618Z,18.27
2022-11-30T23:38:12.882Z,19.20
2022-11-30T23:41:08.735Z,18.77
2022-11-30T23:43:56.010Z,18.87
2022-11-30T23:46:43.794Z,17.02
2022-11-30T23:49:31.054Z,18.15
2022-11-30T23:52:18.281Z,17.12
2022-11-30T23:55:06.095Z,16.67
2022-11-30T23:57:56.281Z,17.52
